Hauptseite
METAR-TAF:

METAR-TAF

Flughäfen :

Harbin, China

Breite: 45-45N, Länge: 126-46E, Höhe: 143 m

Beobachtung

Neuester Wetterbericht von vor 37 Minuten, um 13:00 UTC
Wind 2 kt aus Südost
Temperatur 11°C
Luftfeuchtigkeit 82%
Luftdruck 1014 hPa
Sichtweite 10 km oder mehr
keine Wolken unter 1500 m und keine Kumulonimbus oder Gewitterwolken

METAR: ZYHB 191300Z 13001MPS CAVOK 11/08 Q1014 NOSIG

Zeit: 21:37 (13:37 UTC)

Prognose

Neuester Wetterbericht von vor 4 Stunden und 27 Minuten, um 09:10 UTC
Gültige Prognose vom 19 um 12 UTC bis 20 um 12 UTC
Wind 8 kt aus Süd/Südost
Sichtweite: 6000 m
Leicht bewölkt in der Höhe von 3000 ft

TAF: ZYHB 190910Z 1912/2012 15004MPS 6000 FEW030 TX24/2006Z TN10/1921Z

Wetterbeobachtungen und Prognosen von mehr als 4000 Flughäfen (METAR und TAF Bericht).

Die verfügbaren Stationen werden durch gelbe und rote Markierungen auf der Karte dargestellt.

Führen Sie die Maus auf sie, um den Namen der Station zu sehen.

Darauf klicken, um die Beobachtung von Wetterbeobachtungen und Prognosen zu sehen.

Um die Karte zu ändern : klicken Sie auf den grünen Tasten mit einem schwarzen Kreuz Zum Vergrößern, auf den grünen Button mit einem Gedankenstrich zu verkleinern, oder auf die grünen Pfeile für benachbarte Karten.


METAR-TAF: